»·PEaware :: N3539W 49X-L22

N3539W :: 49X-L22

FLIGHT INFORMATION

Flight Status: Arrived
Operator: Privately registered:
United States
More flights under this callsign
Pilot: Joerg P. (23850)
Aircraft: PIPER PA-32 SARATOGA
(PA32)
More flights by this aircraft type
Origin: 49X Chemehuevi Valley
United States
Destination: L22 Yucca Valley
United States
More flights between these airports :: More routes between these airports
Route: TNP
File this flight plan on PilotEdge
Remarks:
Altitude:
(Current/Filed)
8,500ft
Speed:
(Current/Filed)
130kts
Departed: 19-Aug-20 05:52 PM
Arrived: 19-Aug-20 06:41 PM
Distance/Time
Traveled:
101nm/0:49
Distance/Time
To Go:
Arrived

Flight Plot

Page will automatically refresh every two minutes.

Flight plan parsing failed; only flown route is shown


Map Options




Map Legend


Flown Route
Filed Route
Departure Airport
Arrival Airport
Navaid (VOR, NDB)
Fix

Horizontal Profiles

Position Reports

Time Latitude Longitude Heading Altitude Ground
Speed
19-Aug-20 17:46 34.529429 -114.430280 179 623ft 0kts
19-Aug-20 17:47 34.529427 -114.430280 180 623ft 0kts
19-Aug-20 17:48 34.526897 -114.430963 179 627ft 11kts
19-Aug-20 17:49 34.522144 -114.431073 225 630ft 12kts
19-Aug-20 17:50 34.522332 -114.431981 3 634ft 0kts
19-Aug-20 17:51 34.539283 -114.432935 349 876ft 111kts
19-Aug-20 17:52 34.565501 -114.453807 317 1650ft 119kts
19-Aug-20 17:53 34.583317 -114.486667 285 2383ft 118kts
19-Aug-20 17:54 34.579822 -114.524662 252 3184ft 112kts
19-Aug-20 17:55 34.572297 -114.560682 247 3970ft 110kts
19-Aug-20 17:56 34.555531 -114.577842 207 4519ft 110kts
19-Aug-20 17:57 34.527025 -114.590704 197 5253ft 111kts
19-Aug-20 17:58 34.510551 -114.619278 258 5896ft 110kts
19-Aug-20 17:59 34.504308 -114.655284 245 6551ft 111kts
19-Aug-20 18:00 34.493581 -114.690209 258 7199ft 114kts
19-Aug-20 18:01 34.482433 -114.726068 259 7835ft 115kts
19-Aug-20 18:02 34.468530 -114.761190 239 8401ft 121kts
19-Aug-20 18:03 34.453024 -114.801288 248 8441ft 139kts
19-Aug-20 18:04 34.439610 -114.845521 249 8470ft 143kts
19-Aug-20 18:05 34.425907 -114.887286 251 8364ft 148kts
19-Aug-20 18:06 34.408095 -114.931699 238 8317ft 145kts
19-Aug-20 18:07 34.387620 -114.973334 242 8330ft 145kts
19-Aug-20 18:08 34.374074 -115.018116 251 8412ft 141kts
19-Aug-20 18:09 34.361600 -115.063279 249 8439ft 142kts
19-Aug-20 18:10 34.347201 -115.108076 247 8455ft 142kts
19-Aug-20 18:11 34.331704 -115.152485 243 8438ft 144kts
19-Aug-20 18:12 34.313767 -115.195986 242 8404ft 146kts
19-Aug-20 18:13 34.294968 -115.238995 240 8378ft 145kts
19-Aug-20 18:14 34.278284 -115.282562 255 8408ft 143kts
19-Aug-20 18:15 34.266745 -115.328436 255 8462ft 140kts
19-Aug-20 18:16 34.254145 -115.373455 240 8480ft 143kts
19-Aug-20 18:17 34.232606 -115.413818 251 8474ft 144kts
19-Aug-20 18:18 34.222783 -115.459428 250 8572ft 141kts
19-Aug-20 18:19 34.208391 -115.503876 253 8613ft 142kts
19-Aug-20 18:20 34.196145 -115.549349 252 8628ft 142kts
19-Aug-20 18:21 34.182712 -115.594404 251 8653ft 143kts
19-Aug-20 18:22 34.169612 -115.639653 250 8682ft 142kts
19-Aug-20 18:23 34.154510 -115.684108 256 8642ft 147kts
19-Aug-20 18:24 34.150612 -115.733017 277 8429ft 150kts
19-Aug-20 18:25 34.150004 -115.782055 266 8429ft 143kts
19-Aug-20 18:26 34.142568 -115.829706 253 8496ft 147kts
19-Aug-20 18:27 34.141116 -115.879667 268 8496ft 152kts
19-Aug-20 18:28 34.144943 -115.930493 267 8432ft 154kts
19-Aug-20 18:29 34.147042 -115.982874 265 8235ft 154kts
19-Aug-20 18:30 34.145740 -116.034349 263 8059ft 155kts
19-Aug-20 18:31 34.145504 -116.086825 265 7738ft 159kts
19-Aug-20 18:32 34.146712 -116.141099 268 7212ft 161kts
19-Aug-20 18:33 34.146993 -116.194937 264 6700ft 161kts
19-Aug-20 18:34 34.145122 -116.249334 259 6228ft 162kts
19-Aug-20 18:35 34.141562 -116.303770 258 5746ft 162kts
19-Aug-20 18:36 34.127971 -116.355452 243 5296ft 161kts
19-Aug-20 18:37 34.100778 -116.397217 246 4955ft 154kts
19-Aug-20 18:38 34.122318 -116.413872 84 4192ft 155kts
19-Aug-20 18:39 34.133959 -116.389099 325 3573ft 97kts
19-Aug-20 18:40 34.128592 -116.409559 198 3222ft 11kts

Navigation Log

Ident Type
Flight plan parsing failed, navigation log unavailable